sensor_id;sensor_type;location;lat;lon;timestamp;temperature;humidity
18882;DHT22;9573;50.948;11.600;2023-11-21T00:00:17;7.30;99.90
18882;DHT22;9573;50.948;11.600;2023-11-21T00:02:45;7.40;99.90
18882;DHT22;9573;50.948;11.600;2023-11-21T00:05:13;7.50;99.90
18882;DHT22;9573;50.948;11.600;2023-11-21T00:07:42;7.50;99.90
18882;DHT22;9573;50.948;11.600;2023-11-21T00:10:10;7.60;99.90
18882;DHT22;9573;50.948;11.600;2023-11-21T00:12:39;7.60;99.90
18882;DHT22;9573;50.948;11.600;2023-11-21T00:15:08;7.60;99.90
18882;DHT22;9573;50.948;11.600;2023-11-21T00:17:38;7.70;99.90
18882;DHT22;9573;50.948;11.600;2023-11-21T00:20:07;7.70;99.90
18882;DHT22;9573;50.948;11.600;2023-11-21T00:22:34;7.70;99.90
18882;DHT22;9573;50.948;11.600;2023-11-21T00:25:02;7.80;99.90
18882;DHT22;9573;50.948;11.600;2023-11-21T00:27:30;7.80;99.90
18882;DHT22;9573;50.948;11.600;2023-11-21T00:29:57;7.90;99.90
18882;DHT22;9573;50.948;11.600;2023-11-21T00:32:24;7.90;99.90
18882;DHT22;9573;50.948;11.600;2023-11-21T00:34:52;7.90;99.90
18882;DHT22;9573;50.948;11.600;2023-11-21T00:37:20;7.90;99.90
18882;DHT22;9573;50.948;11.600;2023-11-21T00:39:47;7.90;99.90
18882;DHT22;9573;50.948;11.600;2023-11-21T00:42:14;7.90;99.90
18882;DHT22;9573;50.948;11.600;2023-11-21T00:44:41;7.90;99.90
18882;DHT22;9573;50.948;11.600;2023-11-21T00:47:08;7.90;99.90
18882;DHT22;9573;50.948;11.600;2023-11-21T00:49:35;7.90;99.90
18882;DHT22;9573;50.948;11.600;2023-11-21T00:52:06;7.90;99.90
18882;DHT22;9573;50.948;11.600;2023-11-21T00:54:33;7.90;99.90
18882;DHT22;9573;50.948;11.600;2023-11-21T00:57:01;7.90;99.90
18882;DHT22;9573;50.948;11.600;2023-11-21T00:59:29;7.90;99.90
18882;DHT22;9573;50.948;11.600;2023-11-21T01:01:56;8.00;99.90
18882;DHT22;9573;50.948;11.600;2023-11-21T01:04:25;8.00;99.90
18882;DHT22;9573;50.948;11.600;2023-11-21T01:06:53;8.10;99.90
18882;DHT22;9573;50.948;11.600;2023-11-21T01:09:21;8.10;99.90
18882;DHT22;9573;50.948;11.600;2023-11-21T01:11:49;8.10;99.90
18882;DHT22;9573;50.948;11.600;2023-11-21T01:14:17;8.10;99.90
18882;DHT22;9573;50.948;11.600;2023-11-21T01:16:44;8.10;99.90
18882;DHT22;9573;50.948;11.600;2023-11-21T01:19:11;8.10;99.90
18882;DHT22;9573;50.948;11.600;2023-11-21T01:21:38;8.20;99.90
18882;DHT22;9573;50.948;11.600;2023-11-21T01:24:06;8.20;99.90
18882;DHT22;9573;50.948;11.600;2023-11-21T01:26:35;8.10;99.90
18882;DHT22;9573;50.948;11.600;2023-11-21T01:29:03;8.20;99.90
18882;DHT22;9573;50.948;11.600;2023-11-21T01:31:30;8.20;99.90
18882;DHT22;9573;50.948;11.600;2023-11-21T01:33:57;8.20;99.90
18882;DHT22;9573;50.948;11.600;2023-11-21T01:36:30;8.10;99.90
18882;DHT22;9573;50.948;11.600;2023-11-21T01:38:58;8.10;99.90
18882;DHT22;9573;50.948;11.600;2023-11-21T01:41:26;8.10;99.90
18882;DHT22;9573;50.948;11.600;2023-11-21T01:43:55;8.20;99.90
18882;DHT22;9573;50.948;11.600;2023-11-21T01:46:23;8.20;99.90
18882;DHT22;9573;50.948;11.600;2023-11-21T01:48:50;8.20;99.90
18882;DHT22;9573;50.948;11.600;2023-11-21T01:51:18;8.20;99.90
18882;DHT22;9573;50.948;11.600;2023-11-21T01:53:46;8.20;99.90
18882;DHT22;9573;50.948;11.600;2023-11-21T01:56:14;8.30;99.90
18882;DHT22;9573;50.948;11.600;2023-11-21T01:58:42;8.20;99.90
18882;DHT22;9573;50.948;11.600;2023-11-21T02:01:11;8.20;99.90
18882;DHT22;9573;50.948;11.600;2023-11-21T02:03:38;8.20;99.90
18882;DHT22;9573;50.948;11.600;2023-11-21T02:06:05;8.20;99.90
18882;DHT22;9573;50.948;11.600;2023-11-21T02:08:34;8.20;99.90
18882;DHT22;9573;50.948;11.600;2023-11-21T02:11:03;8.20;99.90
18882;DHT22;9573;50.948;11.600;2023-11-21T02:13:31;8.10;99.90
18882;DHT22;9573;50.948;11.600;2023-11-21T02:15:58;8.20;99.90
18882;DHT22;9573;50.948;11.600;2023-11-21T02:18:27;8.20;99.90
18882;DHT22;9573;50.948;11.600;2023-11-21T02:20:55;8.20;99.90
18882;DHT22;9573;50.948;11.600;2023-11-21T02:23:24;8.20;99.90
18882;DHT22;9573;50.948;11.600;2023-11-21T02:25:54;8.30;99.90
18882;DHT22;9573;50.948;11.600;2023-11-21T02:28:21;8.30;99.90
18882;DHT22;9573;50.948;11.600;2023-11-21T02:30:51;8.30;99.90
18882;DHT22;9573;50.948;11.600;2023-11-21T02:33:21;8.30;99.90
18882;DHT22;9573;50.948;11.600;2023-11-21T02:35:48;8.20;99.90
18882;DHT22;9573;50.948;11.600;2023-11-21T02:38:16;8.30;99.90
18882;DHT22;9573;50.948;11.600;2023-11-21T02:40:45;8.30;99.90
18882;DHT22;9573;50.948;11.600;2023-11-21T02:43:12;8.30;99.90
18882;DHT22;9573;50.948;11.600;2023-11-21T02:45:39;8.30;99.90
18882;DHT22;9573;50.948;11.600;2023-11-21T02:48:07;8.20;99.90
18882;DHT22;9573;50.948;11.600;2023-11-21T02:50:39;8.30;99.90
18882;DHT22;9573;50.948;11.600;2023-11-21T02:53:06;8.20;99.90
18882;DHT22;9573;50.948;11.600;2023-11-21T02:55:33;8.30;99.90
18882;DHT22;9573;50.948;11.600;2023-11-21T02:58:02;8.30;99.90
18882;DHT22;9573;50.948;11.600;2023-11-21T03:00:30;8.30;99.90
18882;DHT22;9573;50.948;11.600;2023-11-21T03:02:57;8.30;99.90
18882;DHT22;9573;50.948;11.600;2023-11-21T03:05:24;8.20;99.90
18882;DHT22;9573;50.948;11.600;2023-11-21T03:07:51;8.20;99.90
18882;DHT22;9573;50.948;11.600;2023-11-21T03:10:18;8.20;99.90
18882;DHT22;9573;50.948;11.600;2023-11-21T03:12:45;8.20;99.90
18882;DHT22;9573;50.948;11.600;2023-11-21T03:15:14;8.20;99.90
18882;DHT22;9573;50.948;11.600;2023-11-21T03:17:41;8.20;99.90
18882;DHT22;9573;50.948;11.600;2023-11-21T03:20:09;8.20;99.90
18882;DHT22;9573;50.948;11.600;2023-11-21T03:22:39;8.20;99.90
18882;DHT22;9573;50.948;11.600;2023-11-21T03:25:07;8.20;99.90
18882;DHT22;9573;50.948;11.600;2023-11-21T03:27:36;8.10;99.90
18882;DHT22;9573;50.948;11.600;2023-11-21T03:30:05;8.10;99.90
18882;DHT22;9573;50.948;11.600;2023-11-21T03:32:35;8.10;99.90
18882;DHT22;9573;50.948;11.600;2023-11-21T03:35:03;8.10;99.90
18882;DHT22;9573;50.948;11.600;2023-11-21T03:37:31;8.00;99.90
18882;DHT22;9573;50.948;11.600;2023-11-21T03:39:58;8.00;99.90
18882;DHT22;9573;50.948;11.600;2023-11-21T03:42:25;7.90;99.90
18882;DHT22;9573;50.948;11.600;2023-11-21T03:44:52;7.80;99.90
18882;DHT22;9573;50.948;11.600;2023-11-21T03:47:19;7.80;99.90
18882;DHT22;9573;50.948;11.600;2023-11-21T03:49:48;7.70;99.90
18882;DHT22;9573;50.948;11.600;2023-11-21T03:52:15;7.60;99.90
18882;DHT22;9573;50.948;11.600;2023-11-21T03:54:42;7.50;99.90
18882;DHT22;9573;50.948;11.600;2023-11-21T03:57:10;7.50;99.90
18882;DHT22;9573;50.948;11.600;2023-11-21T03:59:39;7.30;99.90
18882;DHT22;9573;50.948;11.600;2023-11-21T04:02:07;7.20;99.90
18882;DHT22;9573;50.948;11.600;2023-11-21T04:04:34;7.10;99.90
18882;DHT22;9573;50.948;11.600;2023-11-21T04:07:03;7.00;99.90
18882;DHT22;9573;50.948;11.600;2023-11-21T04:09:30;6.90;99.90
18882;DHT22;9573;50.948;11.600;2023-11-21T04:11:57;6.70;99.90
18882;DHT22;9573;50.948;11.600;2023-11-21T04:14:24;6.60;99.90
18882;DHT22;9573;50.948;11.600;2023-11-21T04:16:51;6.50;99.90
18882;DHT22;9573;50.948;11.600;2023-11-21T04:19:19;6.40;99.90
18882;DHT22;9573;50.948;11.600;2023-11-21T04:21:46;6.30;99.90
18882;DHT22;9573;50.948;11.600;2023-11-21T04:24:15;6.20;99.90
18882;DHT22;9573;50.948;11.600;2023-11-21T04:26:42;6.10;99.90
18882;DHT22;9573;50.948;11.600;2023-11-21T04:29:10;5.90;99.90
18882;DHT22;9573;50.948;11.600;2023-11-21T04:31:37;5.90;99.90
18882;DHT22;9573;50.948;11.600;2023-11-21T04:34:04;5.80;99.90
18882;DHT22;9573;50.948;11.600;2023-11-21T04:36:31;5.70;99.90
18882;DHT22;9573;50.948;11.600;2023-11-21T04:38:58;5.70;99.90
18882;DHT22;9573;50.948;11.600;2023-11-21T04:41:26;5.60;99.90
18882;DHT22;9573;50.948;11.600;2023-11-21T04:43:53;5.60;99.90
18882;DHT22;9573;50.948;11.600;2023-11-21T04:46:20;5.50;99.90
18882;DHT22;9573;50.948;11.600;2023-11-21T04:48:48;5.50;99.90
18882;DHT22;9573;50.948;11.600;2023-11-21T04:51:15;5.40;99.90
18882;DHT22;9573;50.948;11.600;2023-11-21T04:53:42;5.30;99.90
18882;DHT22;9573;50.948;11.600;2023-11-21T04:56:09;5.30;99.90
18882;DHT22;9573;50.948;11.600;2023-11-21T04:58:38;5.20;99.90
18882;DHT22;9573;50.948;11.600;2023-11-21T05:01:06;5.20;99.90
18882;DHT22;9573;50.948;11.600;2023-11-21T05:03:34;5.20;99.90
18882;DHT22;9573;50.948;11.600;2023-11-21T05:06:01;5.10;99.90
18882;DHT22;9573;50.948;11.600;2023-11-21T05:08:30;5.10;99.90
18882;DHT22;9573;50.948;11.600;2023-11-21T05:10:57;5.00;99.90
18882;DHT22;9573;50.948;11.600;2023-11-21T05:13:25;5.00;99.90
18882;DHT22;9573;50.948;11.600;2023-11-21T05:15:54;4.90;99.90
18882;DHT22;9573;50.948;11.600;2023-11-21T05:18:22;4.90;99.90
18882;DHT22;9573;50.948;11.600;2023-11-21T05:20:52;4.80;99.90
18882;DHT22;9573;50.948;11.600;2023-11-21T05:23:22;4.80;99.90
18882;DHT22;9573;50.948;11.600;2023-11-21T05:25:49;4.80;99.90
18882;DHT22;9573;50.948;11.600;2023-11-21T05:28:17;4.80;99.90
18882;DHT22;9573;50.948;11.600;2023-11-21T05:30:44;4.70;99.90
18882;DHT22;9573;50.948;11.600;2023-11-21T05:33:12;4.70;99.90
18882;DHT22;9573;50.948;11.600;2023-11-21T05:35:40;4.70;99.90
18882;DHT22;9573;50.948;11.600;2023-11-21T05:38:07;4.70;99.90
18882;DHT22;9573;50.948;11.600;2023-11-21T05:40:33;4.60;99.90
18882;DHT22;9573;50.948;11.600;2023-11-21T05:43:02;4.60;99.90
18882;DHT22;9573;50.948;11.600;2023-11-21T05:45:30;4.50;99.90
18882;DHT22;9573;50.948;11.600;2023-11-21T05:47:58;4.50;99.90
18882;DHT22;9573;50.948;11.600;2023-11-21T05:50:27;5.90;99.90
18882;DHT22;9573;50.948;11.600;2023-11-21T05:52:58;4.50;99.90
18882;DHT22;9573;50.948;11.600;2023-11-21T05:55:26;4.50;99.90
18882;DHT22;9573;50.948;11.600;2023-11-21T05:57:53;4.40;99.90
18882;DHT22;9573;50.948;11.600;2023-11-21T06:00:20;4.40;99.90
18882;DHT22;9573;50.948;11.600;2023-11-21T06:02:51;4.40;99.90
18882;DHT22;9573;50.948;11.600;2023-11-21T06:05:20;4.30;99.90
18882;DHT22;9573;50.948;11.600;2023-11-21T06:07:49;4.30;99.90
18882;DHT22;9573;50.948;11.600;2023-11-21T06:10:19;4.40;99.90
18882;DHT22;9573;50.948;11.600;2023-11-21T06:12:46;4.30;99.90
18882;DHT22;9573;50.948;11.600;2023-11-21T06:15:14;4.30;99.90
18882;DHT22;9573;50.948;11.600;2023-11-21T06:17:42;4.20;99.90
18882;DHT22;9573;50.948;11.600;2023-11-21T06:20:11;4.30;99.90
18882;DHT22;9573;50.948;11.600;2023-11-21T06:22:40;4.30;99.90
18882;DHT22;9573;50.948;11.600;2023-11-21T06:25:11;4.30;99.90
18882;DHT22;9573;50.948;11.600;2023-11-21T06:27:40;4.30;99.90
18882;DHT22;9573;50.948;11.600;2023-11-21T06:30:08;4.40;99.90
18882;DHT22;9573;50.948;11.600;2023-11-21T06:32:37;4.40;99.90
18882;DHT22;9573;50.948;11.600;2023-11-21T06:35:06;4.40;99.90
18882;DHT22;9573;50.948;11.600;2023-11-21T06:37:35;4.50;99.90
18882;DHT22;9573;50.948;11.600;2023-11-21T06:40:03;4.60;99.90
18882;DHT22;9573;50.948;11.600;2023-11-21T06:42:33;4.70;99.90
18882;DHT22;9573;50.948;11.600;2023-11-21T06:45:00;4.90;99.90
18882;DHT22;9573;50.948;11.600;2023-11-21T06:47:29;5.00;99.90
18882;DHT22;9573;50.948;11.600;2023-11-21T06:49:56;5.20;99.90
18882;DHT22;9573;50.948;11.600;2023-11-21T06:52:23;5.30;99.90
18882;DHT22;9573;50.948;11.600;2023-11-21T06:54:50;5.40;99.90
18882;DHT22;9573;50.948;11.600;2023-11-21T06:57:17;5.60;99.90
18882;DHT22;9573;50.948;11.600;2023-11-21T06:59:46;5.80;99.90
18882;DHT22;9573;50.948;11.600;2023-11-21T07:02:13;5.90;99.90
18882;DHT22;9573;50.948;11.600;2023-11-21T07:04:40;6.00;99.90
18882;DHT22;9573;50.948;11.600;2023-11-21T07:07:07;6.00;99.90
18882;DHT22;9573;50.948;11.600;2023-11-21T07:09:34;6.10;99.90
18882;DHT22;9573;50.948;11.600;2023-11-21T07:12:01;6.10;99.90
18882;DHT22;9573;50.948;11.600;2023-11-21T07:14:31;6.20;99.90
18882;DHT22;9573;50.948;11.600;2023-11-21T07:17:00;6.30;99.90
18882;DHT22;9573;50.948;11.600;2023-11-21T07:19:27;6.30;99.90
18882;DHT22;9573;50.948;11.600;2023-11-21T07:21:54;6.40;99.90
18882;DHT22;9573;50.948;11.600;2023-11-21T07:24:22;6.50;99.90
18882;DHT22;9573;50.948;11.600;2023-11-21T07:26:49;6.60;99.90
18882;DHT22;9573;50.948;11.600;2023-11-21T07:29:16;6.60;99.90
18882;DHT22;9573;50.948;11.600;2023-11-21T07:31:43;6.70;99.90
18882;DHT22;9573;50.948;11.600;2023-11-21T07:34:12;6.90;99.90
18882;DHT22;9573;50.948;11.600;2023-11-21T07:36:39;7.00;99.90
18882;DHT22;9573;50.948;11.600;2023-11-21T07:39:06;7.10;99.90
18882;DHT22;9573;50.948;11.600;2023-11-21T07:41:33;7.20;99.90
18882;DHT22;9573;50.948;11.600;2023-11-21T07:44:00;7.20;99.90
18882;DHT22;9573;50.948;11.600;2023-11-21T07:46:28;7.30;99.90
18882;DHT22;9573;50.948;11.600;2023-11-21T07:48:55;7.30;99.90
18882;DHT22;9573;50.948;11.600;2023-11-21T07:51:24;7.30;99.90
18882;DHT22;9573;50.948;11.600;2023-11-21T07:53:51;7.30;99.90
18882;DHT22;9573;50.948;11.600;2023-11-21T07:56:18;7.30;99.90
18882;DHT22;9573;50.948;11.600;2023-11-21T07:58:45;7.40;99.90
18882;DHT22;9573;50.948;11.600;2023-11-21T08:01:12;7.40;99.90
18882;DHT22;9573;50.948;11.600;2023-11-21T08:03:39;7.40;99.90
18882;DHT22;9573;50.948;11.600;2023-11-21T08:06:07;7.40;99.90
18882;DHT22;9573;50.948;11.600;2023-11-21T08:08:36;7.40;99.90
18882;DHT22;9573;50.948;11.600;2023-11-21T08:11:03;7.50;99.90
18882;DHT22;9573;50.948;11.600;2023-11-21T08:13:31;7.50;99.90
18882;DHT22;9573;50.948;11.600;2023-11-21T08:15:58;7.50;99.90
18882;DHT22;9573;50.948;11.600;2023-11-21T08:18:28;7.60;99.90
18882;DHT22;9573;50.948;11.600;2023-11-21T08:20:56;7.60;99.90
18882;DHT22;9573;50.948;11.600;2023-11-21T08:23:23;7.60;99.90
18882;DHT22;9573;50.948;11.600;2023-11-21T08:25:53;7.70;99.90
18882;DHT22;9573;50.948;11.600;2023-11-21T08:28:21;7.70;99.90
18882;DHT22;9573;50.948;11.600;2023-11-21T08:30:49;7.80;99.90
18882;DHT22;9573;50.948;11.600;2023-11-21T08:33:16;7.90;99.90
18882;DHT22;9573;50.948;11.600;2023-11-21T08:35:43;7.90;99.90
18882;DHT22;9573;50.948;11.600;2023-11-21T08:38:11;7.90;99.90
18882;DHT22;9573;50.948;11.600;2023-11-21T08:40:38;8.00;99.90
18882;DHT22;9573;50.948;11.600;2023-11-21T08:43:06;8.00;99.90
18882;DHT22;9573;50.948;11.600;2023-11-21T08:45:34;8.00;99.90
18882;DHT22;9573;50.948;11.600;2023-11-21T08:48:01;8.00;99.90
18882;DHT22;9573;50.948;11.600;2023-11-21T08:50:29;8.00;99.90
18882;DHT22;9573;50.948;11.600;2023-11-21T08:52:56;8.10;99.90
18882;DHT22;9573;50.948;11.600;2023-11-21T08:55:23;8.10;99.90
18882;DHT22;9573;50.948;11.600;2023-11-21T08:57:50;8.10;99.90
18882;DHT22;9573;50.948;11.600;2023-11-21T09:00:18;8.20;99.90
18882;DHT22;9573;50.948;11.600;2023-11-21T09:02:46;8.20;99.90
18882;DHT22;9573;50.948;11.600;2023-11-21T09:05:15;8.30;99.90
18882;DHT22;9573;50.948;11.600;2023-11-21T09:07:43;8.50;99.90
18882;DHT22;9573;50.948;11.600;2023-11-21T09:10:12;8.70;99.90
18882;DHT22;9573;50.948;11.600;2023-11-21T09:12:40;8.80;99.90
18882;DHT22;9573;50.948;11.600;2023-11-21T09:15:09;8.80;99.90
18882;DHT22;9573;50.948;11.600;2023-11-21T09:17:38;8.80;99.90
18882;DHT22;9573;50.948;11.600;2023-11-21T09:20:07;8.80;99.90
18882;DHT22;9573;50.948;11.600;2023-11-21T09:22:35;8.70;99.90
18882;DHT22;9573;50.948;11.600;2023-11-21T09:25:03;8.70;99.90
18882;DHT22;9573;50.948;11.600;2023-11-21T09:27:31;8.70;99.90
18882;DHT22;9573;50.948;11.600;2023-11-21T09:29:58;8.70;99.90
18882;DHT22;9573;50.948;11.600;2023-11-21T09:32:25;8.80;99.90
18882;DHT22;9573;50.948;11.600;2023-11-21T09:34:54;8.90;99.90
18882;DHT22;9573;50.948;11.600;2023-11-21T09:37:23;9.00;99.90
18882;DHT22;9573;50.948;11.600;2023-11-21T09:39:52;9.10;99.90
18882;DHT22;9573;50.948;11.600;2023-11-21T09:42:24;9.20;99.90
18882;DHT22;9573;50.948;11.600;2023-11-21T09:45:03;9.20;99.90
18882;DHT22;9573;50.948;11.600;2023-11-21T09:47:35;9.30;99.90
18882;DHT22;9573;50.948;11.600;2023-11-21T09:50:05;9.40;99.90
18882;DHT22;9573;50.948;11.600;2023-11-21T09:52:40;9.50;99.90
18882;DHT22;9573;50.948;11.600;2023-11-21T09:55:11;9.60;99.90
18882;DHT22;9573;50.948;11.600;2023-11-21T09:57:41;9.70;99.90
18882;DHT22;9573;50.948;11.600;2023-11-21T10:00:11;9.70;99.90
18882;DHT22;9573;50.948;11.600;2023-11-21T10:02:40;9.70;99.90
18882;DHT22;9573;50.948;11.600;2023-11-21T10:05:09;9.70;99.90
18882;DHT22;9573;50.948;11.600;2023-11-21T10:07:39;9.80;99.90
18882;DHT22;9573;50.948;11.600;2023-11-21T10:10:07;9.90;99.90
18882;DHT22;9573;50.948;11.600;2023-11-21T10:12:35;9.90;99.90
18882;DHT22;9573;50.948;11.600;2023-11-21T10:15:08;9.90;99.90
18882;DHT22;9573;50.948;11.600;2023-11-21T10:17:38;10.00;99.90
18882;DHT22;9573;50.948;11.600;2023-11-21T10:20:12;10.00;99.90
18882;DHT22;9573;50.948;11.600;2023-11-21T10:22:40;10.00;99.90
18882;DHT22;9573;50.948;11.600;2023-11-21T10:25:08;10.00;99.90
18882;DHT22;9573;50.948;11.600;2023-11-21T10:27:37;10.00;99.90
18882;DHT22;9573;50.948;11.600;2023-11-21T10:30:07;10.00;99.90
18882;DHT22;9573;50.948;11.600;2023-11-21T10:32:37;10.00;99.90
18882;DHT22;9573;50.948;11.600;2023-11-21T10:35:06;10.20;99.90
18882;DHT22;9573;50.948;11.600;2023-11-21T10:37:37;10.20;99.90
18882;DHT22;9573;50.948;11.600;2023-11-21T10:40:06;10.20;99.90
18882;DHT22;9573;50.948;11.600;2023-11-21T10:42:37;10.10;99.90
18882;DHT22;9573;50.948;11.600;2023-11-21T10:45:05;10.00;99.90
18882;DHT22;9573;50.948;11.600;2023-11-21T10:47:38;9.90;99.90
18882;DHT22;9573;50.948;11.600;2023-11-21T10:50:06;9.90;99.90
18882;DHT22;9573;50.948;11.600;2023-11-21T10:52:38;10.00;99.90
18882;DHT22;9573;50.948;11.600;2023-11-21T10:55:16;10.00;99.90
18882;DHT22;9573;50.948;11.600;2023-11-21T10:57:46;9.90;99.90
18882;DHT22;9573;50.948;11.600;2023-11-21T11:00:16;9.90;99.90
18882;DHT22;9573;50.948;11.600;2023-11-21T11:02:50;9.90;99.90
18882;DHT22;9573;50.948;11.600;2023-11-21T11:05:20;9.90;99.90
18882;DHT22;9573;50.948;11.600;2023-11-21T11:07:50;9.90;99.90
18882;DHT22;9573;50.948;11.600;2023-11-21T11:10:20;9.90;99.90
18882;DHT22;9573;50.948;11.600;2023-11-21T11:12:48;9.90;99.90
18882;DHT22;9573;50.948;11.600;2023-11-21T11:15:19;9.90;99.90
18882;DHT22;9573;50.948;11.600;2023-11-21T11:17:46;9.90;99.90
18882;DHT22;9573;50.948;11.600;2023-11-21T11:20:16;10.00;99.90
18882;DHT22;9573;50.948;11.600;2023-11-21T11:22:55;10.00;99.90
18882;DHT22;9573;50.948;11.600;2023-11-21T11:25:39;10.00;99.90
18882;DHT22;9573;50.948;11.600;2023-11-21T11:28:17;10.00;99.90
18882;DHT22;9573;50.948;11.600;2023-11-21T11:30:57;10.00;99.90
18882;DHT22;9573;50.948;11.600;2023-11-21T11:33:36;10.10;99.90
18882;DHT22;9573;50.948;11.600;2023-11-21T11:36:09;10.00;99.90
18882;DHT22;9573;50.948;11.600;2023-11-21T11:38:46;9.90;99.90
18882;DHT22;9573;50.948;11.600;2023-11-21T11:41:24;9.90;99.90
18882;DHT22;9573;50.948;11.600;2023-11-21T11:43:53;9.80;99.90
18882;DHT22;9573;50.948;11.600;2023-11-21T11:46:20;9.80;99.90
18882;DHT22;9573;50.948;11.600;2023-11-21T11:48:49;9.60;99.90
18882;DHT22;9573;50.948;11.600;2023-11-21T11:51:29;9.50;99.90
18882;DHT22;9573;50.948;11.600;2023-11-21T11:53:58;9.40;99.90
18882;DHT22;9573;50.948;11.600;2023-11-21T11:56:27;9.40;99.90
18882;DHT22;9573;50.948;11.600;2023-11-21T11:58:57;9.40;99.90
18882;DHT22;9573;50.948;11.600;2023-11-21T12:01:25;9.40;99.90
18882;DHT22;9573;50.948;11.600;2023-11-21T12:04:23;9.40;99.90
18882;DHT22;9573;50.948;11.600;2023-11-21T12:06:57;9.40;99.90
18882;DHT22;9573;50.948;11.600;2023-11-21T12:09:30;9.40;99.90
18882;DHT22;9573;50.948;11.600;2023-11-21T12:11:58;9.40;99.90
18882;DHT22;9573;50.948;11.600;2023-11-21T12:14:26;9.30;99.90
18882;DHT22;9573;50.948;11.600;2023-11-21T12:16:54;9.20;99.90
18882;DHT22;9573;50.948;11.600;2023-11-21T12:19:21;9.10;99.90
18882;DHT22;9573;50.948;11.600;2023-11-21T12:21:49;9.00;99.90
18882;DHT22;9573;50.948;11.600;2023-11-21T12:24:17;9.00;99.90
18882;DHT22;9573;50.948;11.600;2023-11-21T12:26:46;9.00;99.90
18882;DHT22;9573;50.948;11.600;2023-11-21T12:29:13;9.00;99.90
18882;DHT22;9573;50.948;11.600;2023-11-21T12:31:42;8.10;99.90
18882;DHT22;9573;50.948;11.600;2023-11-21T12:34:10;8.80;99.90
18882;DHT22;9573;50.948;11.600;2023-11-21T12:36:37;8.70;99.90
18882;DHT22;9573;50.948;11.600;2023-11-21T12:39:05;8.60;99.90
18882;DHT22;9573;50.948;11.600;2023-11-21T12:41:35;8.50;99.90
18882;DHT22;9573;50.948;11.600;2023-11-21T12:44:03;8.50;99.90
18882;DHT22;9573;50.948;11.600;2023-11-21T12:46:31;8.40;99.90
18882;DHT22;9573;50.948;11.600;2023-11-21T12:49:00;8.30;99.90
18882;DHT22;9573;50.948;11.600;2023-11-21T12:51:27;8.30;99.90
18882;DHT22;9573;50.948;11.600;2023-11-21T12:53:55;8.20;99.90
18882;DHT22;9573;50.948;11.600;2023-11-21T12:56:24;8.10;99.90
18882;DHT22;9573;50.948;11.600;2023-11-21T12:58:54;8.00;99.90
18882;DHT22;9573;50.948;11.600;2023-11-21T13:01:26;7.90;99.90
18882;DHT22;9573;50.948;11.600;2023-11-21T13:03:57;7.90;99.90
18882;DHT22;9573;50.948;11.600;2023-11-21T13:06:25;7.90;99.90
18882;DHT22;9573;50.948;11.600;2023-11-21T13:08:52;7.80;99.90
18882;DHT22;9573;50.948;11.600;2023-11-21T13:11:22;7.80;99.90
18882;DHT22;9573;50.948;11.600;2023-11-21T13:13:52;7.70;99.90
18882;DHT22;9573;50.948;11.600;2023-11-21T13:16:19;7.50;99.90
18882;DHT22;9573;50.948;11.600;2023-11-21T13:18:48;7.50;99.90
18882;DHT22;9573;50.948;11.600;2023-11-21T13:21:15;7.40;99.90
18882;DHT22;9573;50.948;11.600;2023-11-21T13:23:43;7.40;99.90
18882;DHT22;9573;50.948;11.600;2023-11-21T13:26:11;7.50;99.90
18882;DHT22;9573;50.948;11.600;2023-11-21T13:28:40;7.40;99.90
18882;DHT22;9573;50.948;11.600;2023-11-21T13:31:11;7.50;99.90
18882;DHT22;9573;50.948;11.600;2023-11-21T13:33:48;7.40;99.90
18882;DHT22;9573;50.948;11.600;2023-11-21T13:36:21;7.30;99.90
18882;DHT22;9573;50.948;11.600;2023-11-21T13:38:49;7.40;99.90
18882;DHT22;9573;50.948;11.600;2023-11-21T13:41:18;7.30;99.90
18882;DHT22;9573;50.948;11.600;2023-11-21T13:43:45;7.30;99.90
18882;DHT22;9573;50.948;11.600;2023-11-21T13:46:16;7.20;99.90
18882;DHT22;9573;50.948;11.600;2023-11-21T13:48:48;7.10;99.90
18882;DHT22;9573;50.948;11.600;2023-11-21T13:51:21;7.00;99.90
18882;DHT22;9573;50.948;11.600;2023-11-21T13:53:56;7.00;99.90
18882;DHT22;9573;50.948;11.600;2023-11-21T13:56:24;7.00;99.90
18882;DHT22;9573;50.948;11.600;2023-11-21T13:58:54;7.90;99.90
18882;DHT22;9573;50.948;11.600;2023-11-21T14:01:22;6.90;99.90
18882;DHT22;9573;50.948;11.600;2023-11-21T14:04:14;7.00;99.90
18882;DHT22;9573;50.948;11.600;2023-11-21T14:06:56;6.90;99.90
18882;DHT22;9573;50.948;11.600;2023-11-21T14:09:26;6.90;99.90
18882;DHT22;9573;50.948;11.600;2023-11-21T14:12:01;6.90;99.90
18882;DHT22;9573;50.948;11.600;2023-11-21T14:14:32;6.90;99.90
18882;DHT22;9573;50.948;11.600;2023-11-21T14:16:59;6.90;99.90
18882;DHT22;9573;50.948;11.600;2023-11-21T14:19:31;6.80;99.90
18882;DHT22;9573;50.948;11.600;2023-11-21T14:21:59;6.70;99.90
18882;DHT22;9573;50.948;11.600;2023-11-21T14:24:27;6.70;99.90
18882;DHT22;9573;50.948;11.600;2023-11-21T14:26:54;6.60;99.90
18882;DHT22;9573;50.948;11.600;2023-11-21T14:29:22;6.60;99.90
18882;DHT22;9573;50.948;11.600;2023-11-21T14:31:49;6.60;99.90
18882;DHT22;9573;50.948;11.600;2023-11-21T14:34:19;6.50;99.90
18882;DHT22;9573;50.948;11.600;2023-11-21T14:36:48;6.50;99.90
18882;DHT22;9573;50.948;11.600;2023-11-21T14:39:15;6.50;99.90
18882;DHT22;9573;50.948;11.600;2023-11-21T14:41:48;6.40;99.90
18882;DHT22;9573;50.948;11.600;2023-11-21T14:44:16;6.40;99.90
18882;DHT22;9573;50.948;11.600;2023-11-21T14:46:43;6.40;99.90
18882;DHT22;9573;50.948;11.600;2023-11-21T14:49:12;6.40;99.90
18882;DHT22;9573;50.948;11.600;2023-11-21T14:51:46;6.40;99.90
18882;DHT22;9573;50.948;11.600;2023-11-21T14:54:27;6.40;99.90
18882;DHT22;9573;50.948;11.600;2023-11-21T14:57:06;6.40;99.90
18882;DHT22;9573;50.948;11.600;2023-11-21T14:59:37;6.40;99.90
18882;DHT22;9573;50.948;11.600;2023-11-21T15:02:08;6.10;99.90
18882;DHT22;9573;50.948;11.600;2023-11-21T15:04:42;6.40;99.90
18882;DHT22;9573;50.948;11.600;2023-11-21T15:07:11;6.40;99.90
18882;DHT22;9573;50.948;11.600;2023-11-21T15:09:38;6.40;99.90
18882;DHT22;9573;50.948;11.600;2023-11-21T15:12:08;6.40;99.90
18882;DHT22;9573;50.948;11.600;2023-11-21T15:14:41;6.30;99.90
18882;DHT22;9573;50.948;11.600;2023-11-21T15:17:11;6.30;99.90
18882;DHT22;9573;50.948;11.600;2023-11-21T15:19:41;6.30;99.90
18882;DHT22;9573;50.948;11.600;2023-11-21T15:22:10;6.30;99.90
18882;DHT22;9573;50.948;11.600;2023-11-21T15:24:40;6.40;99.90
18882;DHT22;9573;50.948;11.600;2023-11-21T15:27:10;6.30;99.90
18882;DHT22;9573;50.948;11.600;2023-11-21T15:29:37;6.30;99.90
18882;DHT22;9573;50.948;11.600;2023-11-21T15:32:05;6.20;99.90
18882;DHT22;9573;50.948;11.600;2023-11-21T15:34:33;6.20;99.90
18882;DHT22;9573;50.948;11.600;2023-11-21T15:37:00;6.10;99.90
18882;DHT22;9573;50.948;11.600;2023-11-21T15:39:29;6.10;99.90
18882;DHT22;9573;50.948;11.600;2023-11-21T15:41:57;6.10;99.90
18882;DHT22;9573;50.948;11.600;2023-11-21T15:44:25;6.00;99.90
18882;DHT22;9573;50.948;11.600;2023-11-21T15:46:53;6.00;99.90
18882;DHT22;9573;50.948;11.600;2023-11-21T15:49:20;6.00;99.90
18882;DHT22;9573;50.948;11.600;2023-11-21T15:51:48;6.00;99.90
18882;DHT22;9573;50.948;11.600;2023-11-21T15:54:19;5.90;99.90